Glen Robertson, Canada
Current Conditions -  °F | °C
As of 6:00 AM on Wednesday 26 Nov 2014 (Local Time) from CYMX Reporting Station
Broken Clouds Broken Clouds  
Wind Chill: 28°   Ceiling: 24000
Heat Index: 28°   Visibility: 25mi
Dew Point: 18°   Wind: 2mph
Humidity: 64%   Direction: NA
Pressure: 30.23"   Gusts: NA
Location:  45.35°N, 74.5°W
Report Text: CYMX 261100Z VRB02KT 25SM SCT033 SCT090 BKN240 M02/M08 A3023 RMK SC3AC1CI4 AC TR SLP240
Loading
Personal Weather Stations






























Interactive Weather Map New forecast layout! Learn more

10-Day Weather Forecast

Advertisements
Track Severe Weather on mobile